Time;durP1;ratioP1;P1;durP2;ratioP2;P2;SDS_P1;SDS_P2;PMS_P1;PMS_P2;Temp;Humidity;BMP_temperature;BMP_pressure;BME280_temperature;BME280_humidity;BME280_pressure;Samples;Min_cycle;Max_cycle;Signal;HPM_P1;HPM_P2
2021/11/05 00:00:33;;;;;;;4.65;3.10;;;;;;;;;;5041447;28;20204;-81
2021/11/05 00:03:00;;;;;;;4.30;3.45;;;;;;;;;;5044770;28;20207;-82
2021/11/05 00:05:28;;;;;;;2.95;2.38;;;;;;;;;;5044852;28;20238;-82
2021/11/05 00:07:58;;;;;;;4.05;2.58;;;;;;;;;;5046077;28;20199;-82
2021/11/05 00:10:25;;;;;;;3.35;2.80;;;;;;;;;;5047692;28;20200;-80
2021/11/05 00:12:52;;;;;;;2.70;2.50;;;;;;;;;;5049336;28;20207;-80
2021/11/05 00:15:19;;;;;;;3.42;2.90;;;;;;;;;;5050508;28;20670;-79
2021/11/05 00:17:46;;;;;;;2.55;2.35;;;;;;;;;;5050167;28;20303;-80
2021/11/05 00:20:14;;;;;;;2.80;2.13;;;;;;;;;;5048893;28;20328;-81
2021/11/05 00:22:41;;;;;;;2.67;2.47;;;;;;;;;;5049246;28;20266;-81
2021/11/05 00:25:10;;;;;;;2.13;1.92;;;;;;;;;;5046042;28;20229;-81
2021/11/05 00:27:37;;;;;;;2.10;1.83;;;;;;;;;;5043604;28;20208;-82
2021/11/05 00:30:04;;;;;;;2.05;1.73;;;;;;;;;;5042073;28;20744;-82
2021/11/05 00:32:32;;;;;;;2.83;2.40;;;;;;;;;;5040491;28;20621;-82
2021/11/05 00:34:58;;;;;;;2.75;2.30;;;;;;;;;;5038718;28;20254;-81
2021/11/05 00:37:25;;;;;;;2.00;1.90;;;;;;;;;;5038088;28;20215;-81
2021/11/05 00:39:53;;;;;;;7.15;2.45;;;;;;;;;;5038367;28;20207;-82
2021/11/05 00:42:21;;;;;;;3.08;1.80;;;;;;;;;;5040137;28;20732;-79
2021/11/05 00:44:48;;;;;;;2.25;2.05;;;;;;;;;;5046906;28;20234;-79
2021/11/05 00:47:16;;;;;;;2.63;2.15;;;;;;;;;;5046483;28;20227;-80
2021/11/05 00:49:43;;;;;;;1.92;1.70;;;;;;;;;;5041701;28;20347;-82
2021/11/05 00:52:10;;;;;;;2.05;1.85;;;;;;;;;;5049037;28;20229;-81
2021/11/05 00:54:37;;;;;;;1.83;1.73;;;;;;;;;;5046340;28;20223;-81
2021/11/05 00:57:05;;;;;;;1.80;1.65;;;;;;;;;;5044925;28;20219;-81
2021/11/05 00:59:34;;;;;;;1.92;1.52;;;;;;;;;;5040660;28;20212;-81
2021/11/05 01:02:01;;;;;;;1.70;1.60;;;;;;;;;;5037928;28;20204;-83
2021/11/05 01:04:28;;;;;;;2.45;2.25;;;;;;;;;;5038064;28;20239;-83
2021/11/05 01:06:55;;;;;;;2.53;1.75;;;;;;;;;;5038077;28;20226;-82
2021/11/05 01:09:21;;;;;;;1.73;1.63;;;;;;;;;;5038349;28;20207;-82
2021/11/05 01:11:48;;;;;;;1.90;1.80;;;;;;;;;;5041076;28;20254;-82
2021/11/05 01:14:15;;;;;;;2.00;1.85;;;;;;;;;;5039671;28;20228;-83
2021/11/05 01:16:44;;;;;;;1.95;1.75;;;;;;;;;;5038742;28;20203;-82
2021/11/05 01:19:11;;;;;;;1.92;1.83;;;;;;;;;;5037022;28;20615;-83
2021/11/05 01:21:38;;;;;;;3.53;1.63;;;;;;;;;;5037380;28;20200;-83
2021/11/05 01:24:05;;;;;;;1.80;1.70;;;;;;;;;;5037126;28;20642;-83
2021/11/05 01:26:32;;;;;;;2.80;2.10;;;;;;;;;;5037539;28;20199;-81
2021/11/05 01:28:59;;;;;;;2.30;1.60;;;;;;;;;;5037499;28;20219;-82
2021/11/05 01:31:26;;;;;;;3.15;1.70;;;;;;;;;;5036794;28;20230;-82
2021/11/05 01:33:55;;;;;;;1.52;1.42;;;;;;;;;;5036441;28;20339;-82
2021/11/05 01:36:22;;;;;;;2.78;1.65;;;;;;;;;;5036958;28;20211;-81
2021/11/05 01:38:49;;;;;;;2.95;2.75;;;;;;;;;;5036569;28;20319;-80
2021/11/05 01:41:16;;;;;;;2.35;1.73;;;;;;;;;;5037002;28;20712;-82
2021/11/05 01:43:46;;;;;;;1.88;1.75;;;;;;;;;;5037330;28;20259;-81
2021/11/05 01:46:13;;;;;;;1.92;1.83;;;;;;;;;;5036534;28;20211;-83
2021/11/05 01:48:40;;;;;;;1.67;1.58;;;;;;;;;;5036989;28;20239;-82
2021/11/05 01:51:08;;;;;;;2.05;1.80;;;;;;;;;;5044374;28;20678;-80
2021/11/05 01:53:35;;;;;;;3.15;2.17;;;;;;;;;;5050368;28;20212;-79
2021/11/05 01:56:02;;;;;;;2.58;2.22;;;;;;;;;;5049772;28;20311;-79
2021/11/05 01:58:29;;;;;;;2.00;1.88;;;;;;;;;;5046395;28;20220;-80
2021/11/05 02:00:56;;;;;;;1.75;1.65;;;;;;;;;;5047500;28;20212;-81
2021/11/05 02:03:23;;;;;;;2.50;1.83;;;;;;;;;;5043684;28;20726;-82
2021/11/05 02:05:52;;;;;;;2.30;1.80;;;;;;;;;;5040126;28;20212;-83
2021/11/05 02:08:21;;;;;;;1.65;1.55;;;;;;;;;;5040517;28;20242;-83
2021/11/05 02:10:48;;;;;;;2.35;2.15;;;;;;;;;;5040302;28;20258;-81
2021/11/05 02:13:15;;;;;;;3.15;2.10;;;;;;;;;;5041612;28;20231;-81
2021/11/05 02:15:42;;;;;;;1.75;1.65;;;;;;;;;;5040121;28;20219;-83
2021/11/05 02:18:10;;;;;;;1.95;1.75;;;;;;;;;;5041331;28;20258;-84
2021/11/05 02:20:37;;;;;;;2.00;1.80;;;;;;;;;;5042466;28;20208;-84
2021/11/05 02:23:05;;;;;;;1.85;1.75;;;;;;;;;;5046850;28;20196;-82
2021/11/05 02:25:33;;;;;;;3.88;2.00;;;;;;;;;;5041886;28;20278;-82
2021/11/05 02:28:00;;;;;;;2.08;1.88;;;;;;;;;;5041127;28;20324;-83
2021/11/05 02:30:27;;;;;;;4.07;2.47;;;;;;;;;;5041244;28;20200;-81
2021/11/05 02:32:54;;;;;;;1.90;1.70;;;;;;;;;;5040755;28;20243;-82
2021/11/05 02:35:21;;;;;;;1.90;1.80;;;;;;;;;;5040216;28;20258;-81
2021/11/05 02:37:48;;;;;;;3.25;2.15;;;;;;;;;;5040147;28;20251;-80
2021/11/05 02:40:17;;;;;;;1.95;1.85;;;;;;;;;;5044053;28;20211;-81
2021/11/05 02:42:45;;;;;;;3.60;2.22;;;;;;;;;;5053437;28;20199;-79
2021/11/05 02:45:12;;;;;;;4.20;2.25;;;;;;;;;;5046279;28;20259;-82
2021/11/05 02:47:40;;;;;;;2.28;2.10;;;;;;;;;;5043864;28;20204;-81
2021/11/05 02:50:08;;;;;;;2.75;2.22;;;;;;;;;;5039421;28;20212;-83
2021/11/05 02:52:35;;;;;;;2.92;2.65;;;;;;;;;;5041939;28;20261;-82
2021/11/05 02:55:02;;;;;;;2.55;2.35;;;;;;;;;;5041630;28;20277;-81
2021/11/05 02:57:31;;;;;;;3.10;2.80;;;;;;;;;;5039398;28;20289;-80
2021/11/05 02:59:58;;;;;;;6.20;3.83;;;;;;;;;;5039225;28;20574;-81
2021/11/05 03:02:27;;;;;;;3.15;2.90;;;;;;;;;;5039415;28;20215;-81
2021/11/05 03:04:54;;;;;;;3.30;2.55;;;;;;;;;;5043982;28;20285;-80
2021/11/05 03:07:21;;;;;;;4.90;2.80;;;;;;;;;;5047746;28;20692;-80
2021/11/05 03:09:48;;;;;;;3.20;2.80;;;;;;;;;;5041819;28;20208;-82
2021/11/05 03:12:15;;;;;;;3.80;2.33;;;;;;;;;;5040839;28;20235;-80
2021/11/05 03:14:43;;;;;;;6.38;3.50;;;;;;;;;;5040282;28;20251;-81
2021/11/05 03:17:11;;;;;;;4.25;3.13;;;;;;;;;;5039680;28;20200;-79
2021/11/05 03:19:38;;;;;;;3.42;2.67;;;;;;;;;;5039774;28;20223;-81
2021/11/05 03:22:27;;;;;;;3.35;2.80;;;;;;;;;;5043056;28;20204;-78
2021/11/05 03:24:54;;;;;;;3.53;3.00;;;;;;;;;;5039839;28;20220;-80
2021/11/05 03:27:21;;;;;;;6.10;3.60;;;;;;;;;;5038116;28;20495;-79
2021/11/05 03:29:50;;;;;;;3.63;3.22;;;;;;;;;;5038558;28;20203;-81
2021/11/05 03:32:16;;;;;;;4.05;3.00;;;;;;;;;;5038629;28;20207;-82
2021/11/05 03:34:43;;;;;;;3.97;3.30;;;;;;;;;;5040063;28;20250;-81
2021/11/05 03:37:10;;;;;;;5.38;3.40;;;;;;;;;;5039688;28;20231;-81
2021/11/05 03:39:38;;;;;;;5.22;3.50;;;;;;;;;;5039175;28;20755;-81
2021/11/05 03:42:05;;;;;;;3.85;3.55;;;;;;;;;;5038337;28;20214;-81
2021/11/05 03:44:32;;;;;;;5.13;3.38;;;;;;;;;;5038705;28;20297;-82
2021/11/05 03:47:01;;;;;;;3.70;3.22;;;;;;;;;;5038619;28;20253;-81
2021/11/05 03:49:29;;;;;;;5.20;3.47;;;;;;;;;;5039656;28;20220;-82
2021/11/05 03:51:56;;;;;;;5.85;4.28;;;;;;;;;;5039621;28;20203;-82
2021/11/05 03:54:23;;;;;;;5.57;4.85;;;;;;;;;;5039459;28;20441;-82
2021/11/05 03:56:50;;;;;;;4.93;3.55;;;;;;;;;;5039205;28;20204;-82
2021/11/05 03:59:18;;;;;;;5.47;3.70;;;;;;;;;;5038827;28;20661;-81
2021/11/05 04:01:45;;;;;;;5.43;4.35;;;;;;;;;;5038491;28;20464;-82
2021/11/05 04:04:13;;;;;;;4.97;3.70;;;;;;;;;;5044331;28;20235;-81
2021/11/05 04:06:40;;;;;;;6.60;4.75;;;;;;;;;;5052301;28;20246;-82
2021/11/05 04:09:07;;;;;;;7.50;5.05;;;;;;;;;;5049439;28;20253;-81
2021/11/05 04:11:34;;;;;;;6.97;4.93;;;;;;;;;;5039031;28;20207;-82
2021/11/05 04:14:01;;;;;;;5.90;5.20;;;;;;;;;;5039135;28;20274;-83
2021/11/05 04:16:28;;;;;;;6.95;4.35;;;;;;;;;;5038544;28;20203;-81
2021/11/05 04:18:55;;;;;;;5.95;4.90;;;;;;;;;;5039108;28;20254;-82
2021/11/05 04:21:23;;;;;;;6.45;4.38;;;;;;;;;;5040151;28;20207;-83
2021/11/05 04:23:50;;;;;;;5.90;5.28;;;;;;;;;;5039406;28;20231;-83
2021/11/05 04:26:18;;;;;;;6.20;5.32;;;;;;;;;;5039073;28;20671;-83
2021/11/05 04:28:44;;;;;;;8.80;5.20;;;;;;;;;;5039038;28;20200;-82
2021/11/05 04:31:13;;;;;;;6.30;4.50;;;;;;;;;;5038771;28;20686;-82
2021/11/05 04:33:41;;;;;;;8.20;5.82;;;;;;;;;;5038277;28;20294;-82
2021/11/05 04:36:08;;;;;;;7.45;5.65;;;;;;;;;;5038511;28;20239;-81
2021/11/05 04:38:36;;;;;;;9.00;6.10;;;;;;;;;;5039885;28;20282;-82
2021/11/05 04:41:03;;;;;;;10.02;6.45;;;;;;;;;;5045055;28;20199;-82
2021/11/05 04:43:30;;;;;;;12.88;8.32;;;;;;;;;;5045773;28;20207;-82
2021/11/05 04:45:57;;;;;;;8.30;6.72;;;;;;;;;;5055358;28;20195;-80
2021/11/05 04:48:24;;;;;;;8.77;6.85;;;;;;;;;;5042083;28;20199;-79
2021/11/05 04:50:51;;;;;;;10.07;7.28;;;;;;;;;;5046731;28;20214;-79
2021/11/05 04:53:20;;;;;;;11.60;7.70;;;;;;;;;;5046177;28;20204;-83
2021/11/05 04:55:48;;;;;;;11.27;8.40;;;;;;;;;;5042573;28;20227;-82
2021/11/05 04:58:15;;;;;;;13.02;9.00;;;;;;;;;;5042869;28;20269;-82
2021/11/05 05:00:42;;;;;;;12.73;9.35;;;;;;;;;;5042628;28;20199;-83
2021/11/05 05:03:09;;;;;;;14.52;10.25;;;;;;;;;;5048728;28;20207;-82
2021/11/05 05:05:36;;;;;;;15.80;8.23;;;;;;;;;;5082445;22;20239;-84
2021/11/05 05:08:04;;;;;;;12.80;10.15;;;;;;;;;;5059917;28;20206;-83
2021/11/05 05:10:31;;;;;;;21.67;11.02;;;;;;;;;;5060502;28;20234;-83
2021/11/05 05:12:59;;;;;;;14.93;9.43;;;;;;;;;;5060937;28;20301;-83
2021/11/05 05:15:26;;;;;;;13.18;11.07;;;;;;;;;;5059632;28;20281;-83
2021/11/05 05:17:53;;;;;;;20.23;10.75;;;;;;;;;;5059635;28;20229;-83
2021/11/05 05:20:20;;;;;;;18.80;11.95;;;;;;;;;;5059759;28;20218;-84
2021/11/05 05:22:49;;;;;;;14.65;10.68;;;;;;;;;;5059590;28;20221;-83
2021/11/05 05:25:16;;;;;;;16.98;12.48;;;;;;;;;;5060558;28;20656;-83
2021/11/05 05:27:44;;;;;;;19.35;11.70;;;;;;;;;;5061866;28;20251;-83
2021/11/05 05:30:14;;;;;;;17.00;12.13;;;;;;;;;;5068856;28;20202;-83
2021/11/05 05:32:41;;;;;;;15.90;10.90;;;;;;;;;;5077086;28;20281;-83
2021/11/05 05:35:09;;;;;;;17.58;12.27;;;;;;;;;;5081297;28;20211;-82
2021/11/05 05:37:36;;;;;;;17.92;12.48;;;;;;;;;;5080683;28;20203;-82
2021/11/05 05:40:03;;;;;;;19.45;13.05;;;;;;;;;;5067394;28;20245;-82
2021/11/05 05:42:30;;;;;;;19.13;12.75;;;;;;;;;;5079772;28;20199;-83
2021/11/05 05:44:57;;;;;;;19.13;11.65;;;;;;;;;;5079853;28;20203;-82
2021/11/05 05:47:25;;;;;;;19.60;12.98;;;;;;;;;;5077485;28;20290;-83
2021/11/05 05:49:52;;;;;;;19.75;12.85;;;;;;;;;;5068766;28;20203;-83
2021/11/05 05:52:19;;;;;;;20.55;13.60;;;;;;;;;;5074559;28;20198;-83
2021/11/05 05:54:46;;;;;;;19.60;13.57;;;;;;;;;;5064176;28;20273;-82
2021/11/05 05:57:13;;;;;;;19.08;13.43;;;;;;;;;;5064059;28;20210;-83
2021/11/05 05:59:40;;;;;;;19.55;14.13;;;;;;;;;;5064339;28;20249;-84
2021/11/05 06:02:08;;;;;;;22.25;14.45;;;;;;;;;;5063335;28;20229;-84
2021/11/05 06:04:37;;;;;;;22.35;15.13;;;;;;;;;;5063011;28;20709;-83
2021/11/05 06:07:04;;;;;;;20.77;13.65;;;;;;;;;;5063885;28;20184;-83
2021/11/05 06:09:31;;;;;;;23.23;13.65;;;;;;;;;;5076697;28;20210;-83
2021/11/05 06:11:58;;;;;;;23.50;14.23;;;;;;;;;;5078564;28;20207;-83
2021/11/05 06:14:25;;;;;;;22.90;15.15;;;;;;;;;;5071682;28;20223;-83
2021/11/05 06:16:53;;;;;;;25.42;15.10;;;;;;;;;;5064261;28;20249;-84
2021/11/05 06:19:20;;;;;;;23.48;13.70;;;;;;;;;;5064319;28;20223;-84
2021/11/05 06:21:48;;;;;;;24.77;14.32;;;;;;;;;;5063203;28;20206;-83
2021/11/05 06:24:15;;;;;;;21.63;14.10;;;;;;;;;;5063790;28;20203;-84
2021/11/05 06:26:42;;;;;;;24.05;14.35;;;;;;;;;;5063292;28;20234;-83
2021/11/05 06:29:09;;;;;;;22.55;14.73;;;;;;;;;;5064326;28;20195;-83
2021/11/05 06:31:37;;;;;;;23.17;15.02;;;;;;;;;;5066261;28;20215;-82
2021/11/05 06:34:05;;;;;;;24.55;14.32;;;;;;;;;;5071333;28;20193;-81
2021/11/05 06:36:32;;;;;;;23.13;14.88;;;;;;;;;;5065940;28;20203;-81
2021/11/05 06:39:00;;;;;;;22.92;15.35;;;;;;;;;;5070207;28;20249;-83
2021/11/05 06:41:27;;;;;;;19.02;13.75;;;;;;;;;;5071185;28;20236;-83
2021/11/05 06:43:55;;;;;;;22.77;16.30;;;;;;;;;;5069794;28;20293;-84
2021/11/05 06:46:22;;;;;;;21.23;13.98;;;;;;;;;;5066208;28;20227;-83
2021/11/05 06:48:49;;;;;;;21.00;14.38;;;;;;;;;;5071129;28;20187;-82
2021/11/05 06:51:16;;;;;;;20.27;14.55;;;;;;;;;;5072130;28;20237;-84
2021/11/05 06:53:43;;;;;;;22.33;14.57;;;;;;;;;;5072416;28;20211;-83
2021/11/05 06:56:12;;;;;;;20.90;12.88;;;;;;;;;;5071030;28;20283;-83
2021/11/05 06:58:41;;;;;;;20.13;13.32;;;;;;;;;;5067888;28;20260;-83
2021/11/05 07:01:10;;;;;;;24.35;15.02;;;;;;;;;;5069970;28;20207;-83
2021/11/05 07:03:37;;;;;;;25.23;16.45;;;;;;;;;;5066451;28;20286;-83
2021/11/05 07:06:04;;;;;;;22.17;13.02;;;;;;;;;;5065399;28;20289;-83
2021/11/05 07:08:32;;;;;;;21.77;14.65;;;;;;;;;;5070036;28;20229;-83
2021/11/05 07:10:59;;;;;;;18.92;12.52;;;;;;;;;;5073783;28;20217;-82
2021/11/05 07:13:27;;;;;;;21.60;11.68;;;;;;;;;;5079198;28;20205;-83
2021/11/05 07:15:54;;;;;;;17.75;12.35;;;;;;;;;;5079382;28;20219;-82
2021/11/05 07:18:21;;;;;;;19.02;12.35;;;;;;;;;;5078248;28;20225;-83
2021/11/05 07:20:48;;;;;;;19.90;12.95;;;;;;;;;;5077639;28;20238;-82
2021/11/05 07:23:15;;;;;;;20.52;12.55;;;;;;;;;;5077280;28;20275;-82
2021/11/05 07:25:43;;;;;;;20.50;11.60;;;;;;;;;;5078058;28;20283;-83
2021/11/05 07:28:10;;;;;;;16.75;11.25;;;;;;;;;;5078516;28;20480;-81
2021/11/05 07:30:38;;;;;;;20.65;11.80;;;;;;;;;;5067454;28;20207;-84
2021/11/05 07:33:06;;;;;;;25.58;14.10;;;;;;;;;;5065525;28;20207;-84
2021/11/05 07:35:33;;;;;;;18.75;13.10;;;;;;;;;;5063622;28;20233;-82
2021/11/05 07:38:02;;;;;;;21.95;12.77;;;;;;;;;;5065080;28;20211;-83
2021/11/05 07:40:29;;;;;;;24.05;14.25;;;;;;;;;;5072172;28;20226;-83
2021/11/05 07:42:56;;;;;;;18.55;11.35;;;;;;;;;;5075903;28;20195;-84
2021/11/05 07:45:25;;;;;;;23.33;12.35;;;;;;;;;;5070430;28;20222;-82
2021/11/05 07:47:55;;;;;;;20.08;11.20;;;;;;;;;;5071130;28;20234;-82
2021/11/05 07:50:24;;;;;;;21.38;10.77;;;;;;;;;;5064879;28;20214;-83
2021/11/05 07:52:51;;;;;;;19.92;13.85;;;;;;;;;;5063706;28;20206;-83
2021/11/05 07:55:18;;;;;;;17.50;10.95;;;;;;;;;;5064471;28;20226;-84
2021/11/05 07:57:45;;;;;;;18.25;11.60;;;;;;;;;;5062894;28;20229;-82
2021/11/05 08:00:13;;;;;;;21.52;12.30;;;;;;;;;;5062501;28;20265;-84
2021/11/05 08:02:40;;;;;;;16.52;10.90;;;;;;;;;;5062404;28;20207;-84
2021/11/05 08:05:09;;;;;;;18.67;11.50;;;;;;;;;;5062032;28;20243;-83
2021/11/05 08:07:36;;;;;;;18.90;11.83;;;;;;;;;;5063293;28;20219;-83
2021/11/05 08:10:04;;;;;;;16.60;12.00;;;;;;;;;;5062536;28;20807;-84
2021/11/05 08:12:31;;;;;;;14.70;11.48;;;;;;;;;;5062377;28;20580;-84
2021/11/05 08:14:58;;;;;;;12.40;9.15;;;;;;;;;;5064205;28;20234;-85
2021/11/05 08:17:25;;;;;;;16.48;10.45;;;;;;;;;;5062291;28;20208;-82
2021/11/05 08:19:52;;;;;;;17.07;11.57;;;;;;;;;;5061216;28;20219;-82
2021/11/05 08:22:20;;;;;;;19.23;11.98;;;;;;;;;;5060404;28;20445;-82
2021/11/05 08:24:48;;;;;;;16.92;10.93;;;;;;;;;;5059674;28;20609;-82
2021/11/05 08:27:15;;;;;;;17.88;10.32;;;;;;;;;;5064268;28;20203;-84
2021/11/05 08:29:42;;;;;;;17.00;10.52;;;;;;;;;;5060713;28;20289;-81
2021/11/05 08:32:10;;;;;;;22.02;10.30;;;;;;;;;;5060744;28;20202;-83
2021/11/05 08:34:39;;;;;;;19.77;10.60;;;;;;;;;;5061596;28;20262;-82
2021/11/05 08:37:06;;;;;;;17.58;10.40;;;;;;;;;;5068553;28;20439;-83
2021/11/05 08:39:34;;;;;;;15.47;11.07;;;;;;;;;;5066195;28;20234;-81
2021/11/05 08:42:02;;;;;;;12.83;9.90;;;;;;;;;;5065117;28;20867;-82
2021/11/05 08:44:30;;;;;;;14.47;9.27;;;;;;;;;;5062505;28;20535;-82
2021/11/05 08:46:57;;;;;;;16.15;10.55;;;;;;;;;;5062871;28;20970;-82
2021/11/05 08:49:24;;;;;;;17.08;10.60;;;;;;;;;;5062733;28;20217;-82
2021/11/05 08:51:53;;;;;;;12.57;10.50;;;;;;;;;;5065987;28;20217;-81
2021/11/05 08:54:20;;;;;;;13.25;9.38;;;;;;;;;;5061078;28;20203;-82
2021/11/05 08:56:49;;;;;;;17.30;9.43;;;;;;;;;;5063808;28;20219;-82
2021/11/05 08:59:17;;;;;;;14.60;8.90;;;;;;;;;;5063114;28;20915;-81
2021/11/05 09:01:44;;;;;;;14.30;9.20;;;;;;;;;;5061376;28;20203;-82
2021/11/05 09:04:12;;;;;;;14.13;10.33;;;;;;;;;;5061887;28;20445;-82
2021/11/05 09:06:39;;;;;;;11.50;9.10;;;;;;;;;;5062025;28;20474;-82
2021/11/05 09:09:06;;;;;;;11.97;8.67;;;;;;;;;;5061311;28;20499;-81
2021/11/05 09:11:33;;;;;;;11.80;8.93;;;;;;;;;;5065689;28;20446;-82
2021/11/05 09:14:02;;;;;;;17.23;9.27;;;;;;;;;;5070037;28;20494;-82
2021/11/05 09:16:29;;;;;;;17.17;9.27;;;;;;;;;;5070870;28;20492;-82
2021/11/05 09:18:56;;;;;;;10.53;7.93;;;;;;;;;;5069740;28;20455;-82
2021/11/05 09:21:23;;;;;;;13.70;8.77;;;;;;;;;;5065696;28;20501;-82
2021/11/05 09:23:50;;;;;;;17.77;10.17;;;;;;;;;;5064396;28;20476;-81
2021/11/05 09:26:17;;;;;;;13.70;8.75;;;;;;;;;;5067178;28;20492;-82
2021/11/05 09:28:45;;;;;;;10.67;8.10;;;;;;;;;;5072060;28;20329;-81
2021/11/05 09:31:13;;;;;;;10.13;7.77;;;;;;;;;;5066622;28;20437;-83
2021/11/05 09:33:40;;;;;;;12.87;7.57;;;;;;;;;;5064675;28;20957;-81
2021/11/05 09:36:07;;;;;;;10.07;7.23;;;;;;;;;;5062683;28;20631;-81
2021/11/05 09:38:34;;;;;;;7.50;6.43;;;;;;;;;;5061917;28;20468;-81
2021/11/05 09:41:01;;;;;;;9.17;6.10;;;;;;;;;;5059028;28;20477;-81
2021/11/05 09:43:28;;;;;;;11.67;6.83;;;;;;;;;;5058524;28;20483;-81
2021/11/05 09:45:55;;;;;;;10.30;7.20;;;;;;;;;;5059244;28;20470;-80
2021/11/05 09:48:24;;;;;;;12.90;7.80;;;;;;;;;;5060307;28;20557;-82
2021/11/05 09:50:51;;;;;;;57.90;9.00;;;;;;;;;;5060399;28;20661;-81
2021/11/05 09:53:18;;;;;;;11.13;6.10;;;;;;;;;;5060875;28;20237;-82
2021/11/05 09:55:46;;;;;;;12.50;7.53;;;;;;;;;;5059828;28;20469;-82
2021/11/05 09:58:13;;;;;;;17.27;7.93;;;;;;;;;;5060374;28;20468;-81
2021/11/05 10:00:41;;;;;;;9.47;7.63;;;;;;;;;;5069971;28;20485;-80
2021/11/05 10:03:08;;;;;;;10.47;8.07;;;;;;;;;;5062897;28;20454;-81
2021/11/05 10:05:36;;;;;;;11.73;6.93;;;;;;;;;;5062721;28;20477;-80
2021/11/05 10:08:04;;;;;;;9.30;7.23;;;;;;;;;;5067759;28;20428;-81
2021/11/05 10:10:32;;;;;;;14.50;8.68;;;;;;;;;;5072900;28;20453;-80
2021/11/05 10:13:02;;;;;;;10.43;7.90;;;;;;;;;;5073806;28;20233;-80
2021/11/05 10:15:35;;;;;;;12.87;7.70;;;;;;;;;;5074468;28;20498;-81
2021/11/05 10:18:07;;;;;;;11.17;7.50;;;;;;;;;;5074210;28;20470;-81
2021/11/05 10:20:34;;;;;;;9.80;7.50;;;;;;;;;;5072958;28;20519;-81
2021/11/05 10:23:03;;;;;;;11.50;6.83;;;;;;;;;;5073338;28;20472;-83
2021/11/05 10:25:34;;;;;;;8.67;6.30;;;;;;;;;;5066093;28;20463;-81
2021/11/05 10:28:02;;;;;;;8.60;6.43;;;;;;;;;;5067759;28;20449;-80
2021/11/05 10:30:30;;;;;;;9.33;6.20;;;;;;;;;;5077562;28;20464;-80
2021/11/05 10:32:57;;;;;;;10.73;6.17;;;;;;;;;;5080359;28;20440;-79
2021/11/05 10:35:24;;;;;;;9.23;6.33;;;;;;;;;;5079539;28;20457;-82
2021/11/05 10:37:54;;;;;;;6.70;5.70;;;;;;;;;;5068753;28;20896;-82
2021/11/05 10:40:23;;;;;;;10.27;6.60;;;;;;;;;;5062703;28;20513;-82
2021/11/05 10:42:50;;;;;;;8.57;6.30;;;;;;;;;;5064189;28;20457;-82
2021/11/05 10:45:18;;;;;;;6.80;5.37;;;;;;;;;;5061921;28;20440;-82
2021/11/05 10:47:58;;;;;;;6.53;5.73;;;;;;;;;;5062804;28;20492;-81
2021/11/05 10:50:27;;;;;;;7.10;5.27;;;;;;;;;;5061827;28;20437;-81
2021/11/05 10:53:01;;;;;;;7.10;6.13;;;;;;;;;;5061355;28;20442;-82
2021/11/05 10:55:38;;;;;;;12.53;5.20;;;;;;;;;;5062061;28;20436;-81
2021/11/05 10:58:06;;;;;;;7.57;5.17;;;;;;;;;;5061075;28;20420;-81
2021/11/05 11:00:33;;;;;;;15.20;8.30;;;;;;;;;;5060776;28;20541;-82
2021/11/05 11:03:09;;;;;;;9.27;5.40;;;;;;;;;;5064446;28;20476;-80
2021/11/05 11:05:37;;;;;;;9.67;6.27;;;;;;;;;;5082457;22;20485;-81
2021/11/05 11:08:05;;;;;;;10.00;6.40;;;;;;;;;;5045286;28;20510;-83
2021/11/05 11:10:32;;;;;;;9.27;5.43;;;;;;;;;;5043680;28;20467;-82
2021/11/05 11:13:01;;;;;;;6.93;5.63;;;;;;;;;;5042199;28;20940;-81
2021/11/05 11:15:31;;;;;;;13.50;6.27;;;;;;;;;;5049684;28;20452;-79
2021/11/05 11:17:58;;;;;;;9.40;6.00;;;;;;;;;;5050104;28;20422;-82
2021/11/05 11:20:32;;;;;;;9.17;5.80;;;;;;;;;;5046389;28;20482;-81
2021/11/05 11:23:00;;;;;;;10.77;5.90;;;;;;;;;;5045233;28;20421;-82
2021/11/05 11:25:27;;;;;;;6.37;5.63;;;;;;;;;;5044924;28;20809;-80
2021/11/05 11:27:54;;;;;;;6.63;5.10;;;;;;;;;;5048302;28;20863;-80
2021/11/05 11:30:23;;;;;;;10.17;5.70;;;;;;;;;;5049737;28;20492;-80
2021/11/05 11:32:51;;;;;;;9.90;6.30;;;;;;;;;;5050597;28;20424;-79
2021/11/05 11:35:18;;;;;;;11.50;6.27;;;;;;;;;;5050157;28;20481;-79
2021/11/05 11:37:46;;;;;;;11.10;6.97;;;;;;;;;;5048843;28;20447;-79
2021/11/05 11:40:13;;;;;;;7.63;5.93;;;;;;;;;;5048267;28;20470;-80
2021/11/05 11:42:40;;;;;;;10.67;8.50;;;;;;;;;;5047471;28;20453;-82
2021/11/05 11:45:08;;;;;;;9.40;7.10;;;;;;;;;;5050125;28;20444;-81
2021/11/05 11:47:43;;;;;;;10.20;6.57;;;;;;;;;;5049145;28;20424;-82
2021/11/05 11:50:21;;;;;;;8.90;6.07;;;;;;;;;;5046085;28;20446;-82
2021/11/05 11:52:57;;;;;;;8.97;6.40;;;;;;;;;;5046595;28;20408;-81
2021/11/05 11:55:24;;;;;;;10.93;7.40;;;;;;;;;;5044029;28;20921;-82
2021/11/05 11:58:08;;;;;;;8.30;5.87;;;;;;;;;;5043924;28;20421;-80
2021/11/05 12:00:36;;;;;;;7.47;6.70;;;;;;;;;;5045416;28;20446;-80
2021/11/05 12:03:07;;;;;;;9.00;5.17;;;;;;;;;;5047886;28;20446;-83
2021/11/05 12:05:39;;;;;;;11.90;6.70;;;;;;;;;;5047244;28;20453;-81
2021/11/05 12:08:17;;;;;;;10.27;6.67;;;;;;;;;;5044927;28;20451;-81
2021/11/05 12:10:45;;;;;;;7.73;6.17;;;;;;;;;;5044383;28;20450;-81
2021/11/05 12:13:26;;;;;;;7.43;5.40;;;;;;;;;;5044839;28;20444;-81
2021/11/05 12:16:15;;;;;;;7.97;5.70;;;;;;;;;;5029799;28;20528;-82
2021/11/05 12:18:58;;;;;;;7.27;5.53;;;;;;;;;;5046208;28;20426;-80
2021/11/05 12:21:27;;;;;;;12.27;6.00;;;;;;;;;;5044227;28;20524;-79
2021/11/05 12:24:09;;;;;;;15.23;5.90;;;;;;;;;;5044652;28;20471;-82
2021/11/05 12:26:43;;;;;;;6.20;5.60;;;;;;;;;;5041868;28;20520;-81
2021/11/05 12:29:10;;;;;;;6.07;5.47;;;;;;;;;;5044290;28;20586;-81
2021/11/05 12:31:40;;;;;;;8.07;6.00;;;;;;;;;;5042575;28;20473;-82
2021/11/05 12:34:24;;;;;;;8.33;6.90;;;;;;;;;;5042979;28;20913;-81
2021/11/05 12:36:54;;;;;;;12.30;5.77;;;;;;;;;;5043477;28;20468;-83
2021/11/05 12:39:29;;;;;;;6.07;5.17;;;;;;;;;;5042590;28;20442;-82
2021/11/05 12:42:03;;;;;;;6.47;5.30;;;;;;;;;;5045582;28;20837;-82
2021/11/05 12:44:46;;;;;;;5.27;4.53;;;;;;;;;;5047171;28;20430;-83
2021/11/05 12:47:12;;;;;;;9.53;5.03;;;;;;;;;;5043281;28;20960;-81
2021/11/05 12:49:40;;;;;;;7.07;6.00;;;;;;;;;;5042751;28;20442;-80
2021/11/05 12:52:08;;;;;;;10.43;5.43;;;;;;;;;;5044439;28;20496;-81
2021/11/05 12:54:39;;;;;;;7.70;5.00;;;;;;;;;;5044805;28;20774;-82
2021/11/05 12:57:06;;;;;;;10.47;5.30;;;;;;;;;;5044033;28;20435;-82
2021/11/05 12:59:35;;;;;;;6.57;5.30;;;;;;;;;;5051290;28;20450;-82
2021/11/05 13:02:04;;;;;;;8.83;5.50;;;;;;;;;;5055679;28;20459;-83
2021/11/05 13:04:32;;;;;;;8.33;5.50;;;;;;;;;;5056688;28;20427;-79
2021/11/05 13:07:04;;;;;;;7.63;4.63;;;;;;;;;;5056596;28;20434;-79
2021/11/05 13:09:36;;;;;;;5.07;4.27;;;;;;;;;;5054821;28;20465;-81
2021/11/05 13:12:05;;;;;;;6.73;4.60;;;;;;;;;;5054362;28;20435;-81
2021/11/05 13:14:40;;;;;;;8.10;5.13;;;;;;;;;;5054809;28;20443;-82
2021/11/05 13:17:11;;;;;;;8.47;6.07;;;;;;;;;;5056368;28;20481;-80
2021/11/05 13:19:38;;;;;;;15.73;5.53;;;;;;;;;;5050521;28;20430;-81
2021/11/05 13:22:06;;;;;;;8.03;5.93;;;;;;;;;;5050204;28;20470;-82
2021/11/05 13:24:33;;;;;;;8.60;5.73;;;;;;;;;;5043677;28;21002;-81
2021/11/05 13:27:08;;;;;;;8.17;6.10;;;;;;;;;;5041127;28;20477;-82
2021/11/05 13:29:35;;;;;;;9.23;5.87;;;;;;;;;;5041870;28;20564;-83
2021/11/05 13:32:12;;;;;;;7.73;5.83;;;;;;;;;;5045723;28;20431;-84
2021/11/05 13:34:39;;;;;;;9.93;6.53;;;;;;;;;;5041453;28;20508;-83
2021/11/05 13:37:06;;;;;;;8.63;6.47;;;;;;;;;;5040399;28;20443;-82
2021/11/05 13:39:33;;;;;;;9.30;7.00;;;;;;;;;;5040198;28;20449;-82
2021/11/05 13:42:00;;;;;;;7.83;6.47;;;;;;;;;;5040311;28;20474;-82
2021/11/05 13:44:29;;;;;;;8.27;7.27;;;;;;;;;;5039761;28;20447;-81
2021/11/05 13:46:56;;;;;;;9.00;6.37;;;;;;;;;;5038970;28;20421;-82
2021/11/05 13:49:23;;;;;;;10.20;7.30;;;;;;;;;;5039860;28;20497;-82
2021/11/05 13:51:50;;;;;;;9.17;7.00;;;;;;;;;;5039376;28;20461;-82
2021/11/05 13:54:17;;;;;;;8.33;6.57;;;;;;;;;;5039862;28;20427;-82
2021/11/05 13:56:45;;;;;;;8.97;6.70;;;;;;;;;;5042406;28;20557;-80
2021/11/05 13:59:15;;;;;;;11.43;7.47;;;;;;;;;;5043889;28;20501;-82
2021/11/05 14:01:45;;;;;;;12.77;8.90;;;;;;;;;;5043820;28;20469;-83
2021/11/05 14:04:14;;;;;;;7.93;6.80;;;;;;;;;;5044114;28;20443;-82
2021/11/05 14:06:42;;;;;;;8.10;7.30;;;;;;;;;;5050962;28;20478;-79
2021/11/05 14:09:09;;;;;;;17.50;7.83;;;;;;;;;;5047083;28;20525;-81
2021/11/05 14:11:38;;;;;;;8.33;7.50;;;;;;;;;;5043404;28;20492;-82
2021/11/05 14:14:05;;;;;;;10.90;7.53;;;;;;;;;;5044468;28;20492;-82
2021/11/05 14:16:33;;;;;;;12.67;8.63;;;;;;;;;;5042991;28;20494;-80
2021/11/05 14:19:08;;;;;;;8.97;7.43;;;;;;;;;;5042901;28;20454;-80
2021/11/05 14:21:37;;;;;;;10.47;8.40;;;;;;;;;;5042572;28;20481;-81
2021/11/05 14:24:16;;;;;;;12.30;7.30;;;;;;;;;;5043930;28;20412;-81
2021/11/05 14:26:43;;;;;;;9.97;7.17;;;;;;;;;;5052452;28;20498;-82
2021/11/05 14:29:11;;;;;;;9.67;6.83;;;;;;;;;;5048915;28;20520;-80
2021/11/05 14:31:52;;;;;;;10.33;7.50;;;;;;;;;;5045371;28;20466;-82
2021/11/05 14:34:20;;;;;;;17.10;11.10;;;;;;;;;;5056842;28;20453;-82
2021/11/05 14:36:47;;;;;;;10.43;8.10;;;;;;;;;;5049761;28;20470;-81
2021/11/05 14:39:14;;;;;;;7.87;6.97;;;;;;;;;;5044460;28;20458;-81